sensor_id;sensor_type;location;lat;lon;timestamp;temperature;humidity
2387;DHT22;49473;50.772;8.768;2024-02-23T00:01:10;8.10;99.90
2387;DHT22;49473;50.772;8.768;2024-02-23T00:03:37;8.10;99.90
2387;DHT22;49473;50.772;8.768;2024-02-23T00:06:04;8.10;99.90
2387;DHT22;49473;50.772;8.768;2024-02-23T00:08:31;8.00;99.90
2387;DHT22;49473;50.772;8.768;2024-02-23T00:10:59;8.00;99.90
2387;DHT22;49473;50.772;8.768;2024-02-23T00:13:26;8.00;99.90
2387;DHT22;49473;50.772;8.768;2024-02-23T00:15:52;8.00;99.90
2387;DHT22;49473;50.772;8.768;2024-02-23T00:18:19;8.00;99.90
2387;DHT22;49473;50.772;8.768;2024-02-23T00:20:46;8.00;99.90
2387;DHT22;49473;50.772;8.768;2024-02-23T00:23:13;7.90;99.90
2387;DHT22;49473;50.772;8.768;2024-02-23T00:25:40;7.90;99.90
2387;DHT22;49473;50.772;8.768;2024-02-23T00:28:08;7.80;99.90
2387;DHT22;49473;50.772;8.768;2024-02-23T00:30:35;7.80;99.90
2387;DHT22;49473;50.772;8.768;2024-02-23T00:33:02;7.80;99.90
2387;DHT22;49473;50.772;8.768;2024-02-23T00:35:29;7.70;99.90
2387;DHT22;49473;50.772;8.768;2024-02-23T00:37:55;7.70;99.90
2387;DHT22;49473;50.772;8.768;2024-02-23T00:40:22;7.50;99.90
2387;DHT22;49473;50.772;8.768;2024-02-23T00:42:49;7.40;99.90
2387;DHT22;49473;50.772;8.768;2024-02-23T00:45:17;7.30;99.90
2387;DHT22;49473;50.772;8.768;2024-02-23T00:47:44;7.30;99.90
2387;DHT22;49473;50.772;8.768;2024-02-23T00:50:12;7.30;99.90
2387;DHT22;49473;50.772;8.768;2024-02-23T00:52:39;7.30;99.90
2387;DHT22;49473;50.772;8.768;2024-02-23T00:55:07;7.30;99.90
2387;DHT22;49473;50.772;8.768;2024-02-23T00:57:34;7.30;99.90
2387;DHT22;49473;50.772;8.768;2024-02-23T01:00:01;7.30;99.90
2387;DHT22;49473;50.772;8.768;2024-02-23T01:02:29;7.30;99.90
2387;DHT22;49473;50.772;8.768;2024-02-23T01:04:56;7.40;99.90
2387;DHT22;49473;50.772;8.768;2024-02-23T01:07:24;7.40;99.90
2387;DHT22;49473;50.772;8.768;2024-02-23T01:09:51;7.40;99.90
2387;DHT22;49473;50.772;8.768;2024-02-23T01:12:17;7.40;99.90
2387;DHT22;49473;50.772;8.768;2024-02-23T01:14:44;7.40;99.90
2387;DHT22;49473;50.772;8.768;2024-02-23T01:17:14;7.40;99.90
2387;DHT22;49473;50.772;8.768;2024-02-23T01:19:43;7.40;99.90
2387;DHT22;49473;50.772;8.768;2024-02-23T01:22:10;7.40;99.90
2387;DHT22;49473;50.772;8.768;2024-02-23T01:24:37;7.40;99.90
2387;DHT22;49473;50.772;8.768;2024-02-23T01:27:03;7.30;99.90
2387;DHT22;49473;50.772;8.768;2024-02-23T01:29:30;7.30;99.90
2387;DHT22;49473;50.772;8.768;2024-02-23T01:31:58;7.30;99.90
2387;DHT22;49473;50.772;8.768;2024-02-23T01:34:25;7.30;99.90
2387;DHT22;49473;50.772;8.768;2024-02-23T01:36:53;7.20;99.90
2387;DHT22;49473;50.772;8.768;2024-02-23T01:39:20;7.20;99.90
2387;DHT22;49473;50.772;8.768;2024-02-23T01:41:46;7.20;99.90
2387;DHT22;49473;50.772;8.768;2024-02-23T01:44:13;7.20;99.90
2387;DHT22;49473;50.772;8.768;2024-02-23T01:46:42;6.90;99.90
2387;DHT22;49473;50.772;8.768;2024-02-23T01:49:09;6.60;99.90
2387;DHT22;49473;50.772;8.768;2024-02-23T01:51:36;6.20;99.90
2387;DHT22;49473;50.772;8.768;2024-02-23T01:54:05;6.00;99.90
2387;DHT22;49473;50.772;8.768;2024-02-23T01:56:32;6.00;99.90
2387;DHT22;49473;50.772;8.768;2024-02-23T01:59:02;6.00;99.90
2387;DHT22;49473;50.772;8.768;2024-02-23T02:01:30;6.00;99.90
2387;DHT22;49473;50.772;8.768;2024-02-23T02:03:57;6.00;99.90
2387;DHT22;49473;50.772;8.768;2024-02-23T02:06:24;6.00;99.90
2387;DHT22;49473;50.772;8.768;2024-02-23T02:08:51;6.10;99.90
2387;DHT22;49473;50.772;8.768;2024-02-23T02:11:19;6.00;99.90
2387;DHT22;49473;50.772;8.768;2024-02-23T02:13:46;6.10;99.90
2387;DHT22;49473;50.772;8.768;2024-02-23T02:16:13;6.00;99.90
2387;DHT22;49473;50.772;8.768;2024-02-23T02:18:40;6.00;99.90
2387;DHT22;49473;50.772;8.768;2024-02-23T02:21:06;5.90;99.90
2387;DHT22;49473;50.772;8.768;2024-02-23T02:23:33;5.90;99.90
2387;DHT22;49473;50.772;8.768;2024-02-23T02:26:02;5.80;99.90
2387;DHT22;49473;50.772;8.768;2024-02-23T02:28:31;5.70;99.90
2387;DHT22;49473;50.772;8.768;2024-02-23T02:30:58;5.70;99.90
2387;DHT22;49473;50.772;8.768;2024-02-23T02:33:25;5.60;99.90
2387;DHT22;49473;50.772;8.768;2024-02-23T02:35:51;5.50;99.90
2387;DHT22;49473;50.772;8.768;2024-02-23T02:38:18;5.50;99.90
2387;DHT22;49473;50.772;8.768;2024-02-23T02:40:45;5.40;99.90
2387;DHT22;49473;50.772;8.768;2024-02-23T02:43:12;5.40;99.90
2387;DHT22;49473;50.772;8.768;2024-02-23T02:45:40;5.30;99.90
2387;DHT22;49473;50.772;8.768;2024-02-23T02:48:07;5.30;99.90
2387;DHT22;49473;50.772;8.768;2024-02-23T02:50:34;5.30;99.90
2387;DHT22;49473;50.772;8.768;2024-02-23T02:53:01;5.30;99.90
2387;DHT22;49473;50.772;8.768;2024-02-23T02:55:27;5.20;99.90
2387;DHT22;49473;50.772;8.768;2024-02-23T02:57:54;5.10;99.90
2387;DHT22;49473;50.772;8.768;2024-02-23T03:00:21;5.10;99.90
2387;DHT22;49473;50.772;8.768;2024-02-23T03:02:49;5.10;99.90
2387;DHT22;49473;50.772;8.768;2024-02-23T03:05:16;5.00;99.90
2387;DHT22;49473;50.772;8.768;2024-02-23T03:07:42;5.00;99.90
2387;DHT22;49473;50.772;8.768;2024-02-23T03:10:09;5.00;99.90
2387;DHT22;49473;50.772;8.768;2024-02-23T03:12:36;5.00;99.90
2387;DHT22;49473;50.772;8.768;2024-02-23T03:15:03;4.90;99.90
2387;DHT22;49473;50.772;8.768;2024-02-23T03:17:30;4.90;99.90
2387;DHT22;49473;50.772;8.768;2024-02-23T03:19:59;4.80;99.90
2387;DHT22;49473;50.772;8.768;2024-02-23T03:22:26;4.80;99.90
2387;DHT22;49473;50.772;8.768;2024-02-23T03:24:53;4.70;99.90
2387;DHT22;49473;50.772;8.768;2024-02-23T03:27:20;4.70;99.90
2387;DHT22;49473;50.772;8.768;2024-02-23T03:29:53;4.70;99.90
2387;DHT22;49473;50.772;8.768;2024-02-23T03:32:20;4.70;99.90
2387;DHT22;49473;50.772;8.768;2024-02-23T03:34:47;4.70;99.90
2387;DHT22;49473;50.772;8.768;2024-02-23T03:37:15;4.60;99.90
2387;DHT22;49473;50.772;8.768;2024-02-23T03:39:42;4.60;99.90
2387;DHT22;49473;50.772;8.768;2024-02-23T03:42:08;4.60;99.90
2387;DHT22;49473;50.772;8.768;2024-02-23T03:44:35;4.50;99.90
2387;DHT22;49473;50.772;8.768;2024-02-23T03:47:02;4.50;99.90
2387;DHT22;49473;50.772;8.768;2024-02-23T03:49:28;4.50;99.90
2387;DHT22;49473;50.772;8.768;2024-02-23T03:51:55;4.50;99.90
2387;DHT22;49473;50.772;8.768;2024-02-23T03:54:23;4.50;99.90
2387;DHT22;49473;50.772;8.768;2024-02-23T03:56:50;4.40;99.90
2387;DHT22;49473;50.772;8.768;2024-02-23T03:59:17;4.50;99.90
2387;DHT22;49473;50.772;8.768;2024-02-23T04:01:44;4.40;99.90
2387;DHT22;49473;50.772;8.768;2024-02-23T04:04:10;4.40;99.90
2387;DHT22;49473;50.772;8.768;2024-02-23T04:06:37;4.50;99.90
2387;DHT22;49473;50.772;8.768;2024-02-23T04:09:04;4.50;99.90
2387;DHT22;49473;50.772;8.768;2024-02-23T04:11:32;4.50;99.90
2387;DHT22;49473;50.772;8.768;2024-02-23T04:13:59;4.50;99.90
2387;DHT22;49473;50.772;8.768;2024-02-23T04:16:26;4.40;99.90
2387;DHT22;49473;50.772;8.768;2024-02-23T04:18:53;4.40;99.90
2387;DHT22;49473;50.772;8.768;2024-02-23T04:21:21;4.40;99.90
2387;DHT22;49473;50.772;8.768;2024-02-23T04:23:48;4.40;99.90
2387;DHT22;49473;50.772;8.768;2024-02-23T04:26:15;4.40;99.90
2387;DHT22;49473;50.772;8.768;2024-02-23T04:28:43;4.30;99.90
2387;DHT22;49473;50.772;8.768;2024-02-23T04:31:10;4.30;99.90
2387;DHT22;49473;50.772;8.768;2024-02-23T04:33:37;4.30;99.90
2387;DHT22;49473;50.772;8.768;2024-02-23T04:36:05;4.40;99.90
2387;DHT22;49473;50.772;8.768;2024-02-23T04:38:32;4.30;99.90
2387;DHT22;49473;50.772;8.768;2024-02-23T04:41:03;4.30;99.90
2387;DHT22;49473;50.772;8.768;2024-02-23T04:43:29;4.30;99.90
2387;DHT22;49473;50.772;8.768;2024-02-23T04:45:57;4.20;99.90
2387;DHT22;49473;50.772;8.768;2024-02-23T04:48:24;4.30;99.90
2387;DHT22;49473;50.772;8.768;2024-02-23T04:50:51;4.20;99.90
2387;DHT22;49473;50.772;8.768;2024-02-23T04:53:18;4.20;99.90
2387;DHT22;49473;50.772;8.768;2024-02-23T04:55:44;4.30;99.90
2387;DHT22;49473;50.772;8.768;2024-02-23T04:58:11;4.40;99.90
2387;DHT22;49473;50.772;8.768;2024-02-23T05:00:38;4.50;99.90
2387;DHT22;49473;50.772;8.768;2024-02-23T05:03:06;4.60;99.90
2387;DHT22;49473;50.772;8.768;2024-02-23T05:05:35;4.70;99.90
2387;DHT22;49473;50.772;8.768;2024-02-23T05:08:02;4.70;99.90
2387;DHT22;49473;50.772;8.768;2024-02-23T05:10:28;4.70;99.90
2387;DHT22;49473;50.772;8.768;2024-02-23T05:12:55;4.70;99.90
2387;DHT22;49473;50.772;8.768;2024-02-23T05:15:22;4.60;99.90
2387;DHT22;49473;50.772;8.768;2024-02-23T05:17:49;4.60;99.90
2387;DHT22;49473;50.772;8.768;2024-02-23T05:20:17;4.60;99.90
2387;DHT22;49473;50.772;8.768;2024-02-23T05:22:44;4.60;99.90
2387;DHT22;49473;50.772;8.768;2024-02-23T05:25:10;4.60;99.90
2387;DHT22;49473;50.772;8.768;2024-02-23T05:27:37;4.60;99.90
2387;DHT22;49473;50.772;8.768;2024-02-23T05:30:05;4.60;99.90
2387;DHT22;49473;50.772;8.768;2024-02-23T05:32:32;4.70;99.90
2387;DHT22;49473;50.772;8.768;2024-02-23T05:34:58;4.70;99.90
2387;DHT22;49473;50.772;8.768;2024-02-23T05:37:27;4.70;99.90
2387;DHT22;49473;50.772;8.768;2024-02-23T05:39:53;4.80;99.90
2387;DHT22;49473;50.772;8.768;2024-02-23T05:42:20;4.80;99.90
2387;DHT22;49473;50.772;8.768;2024-02-23T05:44:47;4.90;99.90
2387;DHT22;49473;50.772;8.768;2024-02-23T05:47:14;4.90;99.90
2387;DHT22;49473;50.772;8.768;2024-02-23T05:49:40;5.00;99.90
2387;DHT22;49473;50.772;8.768;2024-02-23T05:52:07;5.00;99.90
2387;DHT22;49473;50.772;8.768;2024-02-23T05:54:37;5.10;99.90
2387;DHT22;49473;50.772;8.768;2024-02-23T05:57:04;5.10;99.90
2387;DHT22;49473;50.772;8.768;2024-02-23T05:59:31;5.10;99.90
2387;DHT22;49473;50.772;8.768;2024-02-23T06:01:57;5.20;99.90
2387;DHT22;49473;50.772;8.768;2024-02-23T06:04:24;5.20;99.90
2387;DHT22;49473;50.772;8.768;2024-02-23T06:06:52;5.30;99.90
2387;DHT22;49473;50.772;8.768;2024-02-23T06:09:19;5.30;99.90
2387;DHT22;49473;50.772;8.768;2024-02-23T06:11:47;5.30;99.90
2387;DHT22;49473;50.772;8.768;2024-02-23T06:14:14;5.20;99.90
2387;DHT22;49473;50.772;8.768;2024-02-23T06:16:40;5.30;99.90
2387;DHT22;49473;50.772;8.768;2024-02-23T06:19:08;5.30;99.90
2387;DHT22;49473;50.772;8.768;2024-02-23T06:21:36;5.20;99.90
2387;DHT22;49473;50.772;8.768;2024-02-23T06:24:03;5.20;99.90
2387;DHT22;49473;50.772;8.768;2024-02-23T06:26:30;5.20;99.90
2387;DHT22;49473;50.772;8.768;2024-02-23T06:28:58;5.10;99.90
2387;DHT22;49473;50.772;8.768;2024-02-23T06:31:25;5.10;99.90
2387;DHT22;49473;50.772;8.768;2024-02-23T06:33:52;5.10;99.90
2387;DHT22;49473;50.772;8.768;2024-02-23T06:36:18;5.10;99.90
2387;DHT22;49473;50.772;8.768;2024-02-23T06:38:45;5.20;99.90
2387;DHT22;49473;50.772;8.768;2024-02-23T06:41:12;5.20;99.90
2387;DHT22;49473;50.772;8.768;2024-02-23T06:43:39;5.10;99.90
2387;DHT22;49473;50.772;8.768;2024-02-23T06:46:08;5.10;99.90
2387;DHT22;49473;50.772;8.768;2024-02-23T06:48:35;5.20;99.90
2387;DHT22;49473;50.772;8.768;2024-02-23T06:51:02;5.20;99.90
2387;DHT22;49473;50.772;8.768;2024-02-23T06:53:30;5.20;99.90
2387;DHT22;49473;50.772;8.768;2024-02-23T06:55:57;5.20;99.90
2387;DHT22;49473;50.772;8.768;2024-02-23T06:58:26;5.30;99.90
2387;DHT22;49473;50.772;8.768;2024-02-23T07:00:52;5.30;99.90
2387;DHT22;49473;50.772;8.768;2024-02-23T07:03:20;5.40;99.90
2387;DHT22;49473;50.772;8.768;2024-02-23T07:05:47;5.40;99.90
2387;DHT22;49473;50.772;8.768;2024-02-23T07:08:15;5.50;99.90
2387;DHT22;49473;50.772;8.768;2024-02-23T07:10:42;5.50;99.90
2387;DHT22;49473;50.772;8.768;2024-02-23T07:13:09;5.50;99.90
2387;DHT22;49473;50.772;8.768;2024-02-23T07:15:36;5.50;99.90
2387;DHT22;49473;50.772;8.768;2024-02-23T07:18:05;5.50;99.90
2387;DHT22;49473;50.772;8.768;2024-02-23T07:20:35;5.60;99.90
2387;DHT22;49473;50.772;8.768;2024-02-23T07:23:02;5.60;99.90
2387;DHT22;49473;50.772;8.768;2024-02-23T07:25:28;5.60;99.90
2387;DHT22;49473;50.772;8.768;2024-02-23T07:27:55;5.50;99.90
2387;DHT22;49473;50.772;8.768;2024-02-23T07:30:22;5.60;99.90
2387;DHT22;49473;50.772;8.768;2024-02-23T07:32:49;5.60;99.90
2387;DHT22;49473;50.772;8.768;2024-02-23T07:35:15;5.60;99.90
2387;DHT22;49473;50.772;8.768;2024-02-23T07:37:43;5.50;99.90
2387;DHT22;49473;50.772;8.768;2024-02-23T07:40:11;5.50;99.90
2387;DHT22;49473;50.772;8.768;2024-02-23T07:42:38;5.40;99.90
2387;DHT22;49473;50.772;8.768;2024-02-23T07:45:06;5.50;99.90
2387;DHT22;49473;50.772;8.768;2024-02-23T07:47:34;5.60;99.90
2387;DHT22;49473;50.772;8.768;2024-02-23T07:50:01;5.80;99.90
2387;DHT22;49473;50.772;8.768;2024-02-23T07:52:28;5.90;99.90
2387;DHT22;49473;50.772;8.768;2024-02-23T07:54:56;5.90;99.90
2387;DHT22;49473;50.772;8.768;2024-02-23T07:57:23;5.90;99.90
2387;DHT22;49473;50.772;8.768;2024-02-23T07:59:50;5.80;99.90
2387;DHT22;49473;50.772;8.768;2024-02-23T08:02:16;5.90;99.90
2387;DHT22;49473;50.772;8.768;2024-02-23T08:04:43;5.90;99.90
2387;DHT22;49473;50.772;8.768;2024-02-23T08:07:13;5.90;99.90
2387;DHT22;49473;50.772;8.768;2024-02-23T08:09:40;5.80;99.90
2387;DHT22;49473;50.772;8.768;2024-02-23T08:12:08;5.80;99.90
2387;DHT22;49473;50.772;8.768;2024-02-23T08:14:36;5.90;99.90
2387;DHT22;49473;50.772;8.768;2024-02-23T08:17:04;5.80;99.90
2387;DHT22;49473;50.772;8.768;2024-02-23T08:19:31;5.80;99.90
2387;DHT22;49473;50.772;8.768;2024-02-23T08:21:58;5.90;99.90
2387;DHT22;49473;50.772;8.768;2024-02-23T08:24:25;5.90;99.90
2387;DHT22;49473;50.772;8.768;2024-02-23T08:26:52;5.90;99.90
2387;DHT22;49473;50.772;8.768;2024-02-23T08:29:20;5.90;99.90
2387;DHT22;49473;50.772;8.768;2024-02-23T08:31:47;6.00;99.90
2387;DHT22;49473;50.772;8.768;2024-02-23T08:34:14;6.10;99.90
2387;DHT22;49473;50.772;8.768;2024-02-23T08:36:43;6.20;99.90
2387;DHT22;49473;50.772;8.768;2024-02-23T08:39:09;6.30;99.90
2387;DHT22;49473;50.772;8.768;2024-02-23T08:41:36;6.40;99.90
2387;DHT22;49473;50.772;8.768;2024-02-23T08:44:04;6.50;99.90
2387;DHT22;49473;50.772;8.768;2024-02-23T08:46:32;6.60;99.90
2387;DHT22;49473;50.772;8.768;2024-02-23T08:48:59;6.80;99.90
2387;DHT22;49473;50.772;8.768;2024-02-23T08:51:25;6.90;99.90
2387;DHT22;49473;50.772;8.768;2024-02-23T08:53:52;6.80;99.90
2387;DHT22;49473;50.772;8.768;2024-02-23T08:56:20;6.60;99.90
2387;DHT22;49473;50.772;8.768;2024-02-23T08:58:47;6.70;99.90
2387;DHT22;49473;50.772;8.768;2024-02-23T09:01:14;6.90;99.90
2387;DHT22;49473;50.772;8.768;2024-02-23T09:03:42;7.00;99.90
2387;DHT22;49473;50.772;8.768;2024-02-23T09:06:08;7.00;99.90
2387;DHT22;49473;50.772;8.768;2024-02-23T09:08:36;7.20;99.90
2387;DHT22;49473;50.772;8.768;2024-02-23T09:11:03;7.30;99.90
2387;DHT22;49473;50.772;8.768;2024-02-23T09:13:29;7.70;99.90
2387;DHT22;49473;50.772;8.768;2024-02-23T09:15:56;8.50;99.90
2387;DHT22;49473;50.772;8.768;2024-02-23T09:18:23;10.00;99.90
2387;DHT22;49473;50.772;8.768;2024-02-23T09:20:51;10.30;99.90
2387;DHT22;49473;50.772;8.768;2024-02-23T09:23:18;9.80;99.90
2387;DHT22;49473;50.772;8.768;2024-02-23T09:25:44;9.60;99.90
2387;DHT22;49473;50.772;8.768;2024-02-23T09:28:11;9.40;99.90
2387;DHT22;49473;50.772;8.768;2024-02-23T09:30:38;9.50;99.90
2387;DHT22;49473;50.772;8.768;2024-02-23T09:33:05;9.60;99.90
2387;DHT22;49473;50.772;8.768;2024-02-23T09:35:32;9.80;99.90
2387;DHT22;49473;50.772;8.768;2024-02-23T09:38:00;10.00;99.90
2387;DHT22;49473;50.772;8.768;2024-02-23T09:40:28;10.30;99.90
2387;DHT22;49473;50.772;8.768;2024-02-23T09:42:56;10.70;99.90
2387;DHT22;49473;50.772;8.768;2024-02-23T09:45:25;10.50;99.90
2387;DHT22;49473;50.772;8.768;2024-02-23T09:47:53;10.10;99.90
2387;DHT22;49473;50.772;8.768;2024-02-23T09:50:21;9.80;99.90
2387;DHT22;49473;50.772;8.768;2024-02-23T09:52:48;9.60;99.90
2387;DHT22;49473;50.772;8.768;2024-02-23T09:55:18;9.80;99.90
2387;DHT22;49473;50.772;8.768;2024-02-23T09:57:48;10.10;99.90
2387;DHT22;49473;50.772;8.768;2024-02-23T10:00:16;10.60;99.90
2387;DHT22;49473;50.772;8.768;2024-02-23T10:02:43;10.50;99.90
2387;DHT22;49473;50.772;8.768;2024-02-23T10:05:11;10.50;99.90
2387;DHT22;49473;50.772;8.768;2024-02-23T10:07:38;10.20;99.90
2387;DHT22;49473;50.772;8.768;2024-02-23T10:10:06;10.30;99.90
2387;DHT22;49473;50.772;8.768;2024-02-23T10:12:35;11.70;99.90
2387;DHT22;49473;50.772;8.768;2024-02-23T10:15:02;13.90;99.90
2387;DHT22;49473;50.772;8.768;2024-02-23T10:17:29;15.50;99.90
2387;DHT22;49473;50.772;8.768;2024-02-23T10:19:56;15.70;99.90
2387;DHT22;49473;50.772;8.768;2024-02-23T10:22:24;16.90;99.90
2387;DHT22;49473;50.772;8.768;2024-02-23T10:24:51;17.90;99.90
2387;DHT22;49473;50.772;8.768;2024-02-23T10:27:18;19.00;97.10
2387;DHT22;49473;50.772;8.768;2024-02-23T10:29:49;18.50;94.10
2387;DHT22;49473;50.772;8.768;2024-02-23T10:32:18;18.80;93.20
2387;DHT22;49473;50.772;8.768;2024-02-23T10:34:47;19.00;91.40
2387;DHT22;49473;50.772;8.768;2024-02-23T10:37:14;19.00;89.90
2387;DHT22;49473;50.772;8.768;2024-02-23T10:39:42;19.00;90.70
2387;DHT22;49473;50.772;8.768;2024-02-23T10:42:09;17.30;86.90
2387;DHT22;49473;50.772;8.768;2024-02-23T10:44:37;16.80;90.10
2387;DHT22;49473;50.772;8.768;2024-02-23T10:47:07;17.50;91.20
2387;DHT22;49473;50.772;8.768;2024-02-23T10:49:34;17.50;88.80
2387;DHT22;49473;50.772;8.768;2024-02-23T10:52:02;16.80;91.80
2387;DHT22;49473;50.772;8.768;2024-02-23T10:54:31;16.30;90.40
2387;DHT22;49473;50.772;8.768;2024-02-23T10:56:58;14.90;92.10
2387;DHT22;49473;50.772;8.768;2024-02-23T10:59:26;13.80;94.30
2387;DHT22;49473;50.772;8.768;2024-02-23T11:01:54;12.90;96.80
2387;DHT22;49473;50.772;8.768;2024-02-23T11:04:25;12.60;99.50
2387;DHT22;49473;50.772;8.768;2024-02-23T11:06:54;12.50;99.70
2387;DHT22;49473;50.772;8.768;2024-02-23T11:09:24;12.00;99.90
2387;DHT22;49473;50.772;8.768;2024-02-23T11:11:53;11.90;99.90
2387;DHT22;49473;50.772;8.768;2024-02-23T11:14:29;11.80;99.90
2387;DHT22;49473;50.772;8.768;2024-02-23T11:16:56;11.50;99.90
2387;DHT22;49473;50.772;8.768;2024-02-23T11:19:32;11.50;99.90
2387;DHT22;49473;50.772;8.768;2024-02-23T11:21:59;11.30;99.90
2387;DHT22;49473;50.772;8.768;2024-02-23T11:24:28;11.40;99.90
2387;DHT22;49473;50.772;8.768;2024-02-23T11:26:56;12.20;99.90
2387;DHT22;49473;50.772;8.768;2024-02-23T11:29:26;12.40;99.90
2387;DHT22;49473;50.772;8.768;2024-02-23T11:31:53;12.30;99.90
2387;DHT22;49473;50.772;8.768;2024-02-23T11:34:27;12.30;99.90
2387;DHT22;49473;50.772;8.768;2024-02-23T11:36:54;12.00;99.90
2387;DHT22;49473;50.772;8.768;2024-02-23T11:39:22;11.50;99.90
2387;DHT22;49473;50.772;8.768;2024-02-23T11:41:49;12.70;99.90
2387;DHT22;49473;50.772;8.768;2024-02-23T11:44:16;14.20;99.30
2387;DHT22;49473;50.772;8.768;2024-02-23T11:46:44;15.50;97.50
2387;DHT22;49473;50.772;8.768;2024-02-23T11:49:12;16.60;95.80
2387;DHT22;49473;50.772;8.768;2024-02-23T11:51:40;16.10;92.20
2387;DHT22;49473;50.772;8.768;2024-02-23T11:54:07;15.30;93.80
2387;DHT22;49473;50.772;8.768;2024-02-23T11:56:34;14.10;94.50
2387;DHT22;49473;50.772;8.768;2024-02-23T11:59:01;12.90;96.30
2387;DHT22;49473;50.772;8.768;2024-02-23T12:01:29;12.50;99.70
2387;DHT22;49473;50.772;8.768;2024-02-23T12:03:57;12.10;99.50
2387;DHT22;49473;50.772;8.768;2024-02-23T12:06:24;11.90;99.90
2387;DHT22;49473;50.772;8.768;2024-02-23T12:08:56;11.40;99.90
2387;DHT22;49473;50.772;8.768;2024-02-23T12:11:23;11.00;99.90
2387;DHT22;49473;50.772;8.768;2024-02-23T12:13:50;10.90;99.90
2387;DHT22;49473;50.772;8.768;2024-02-23T12:16:17;11.30;99.90
2387;DHT22;49473;50.772;8.768;2024-02-23T12:18:44;11.70;99.90
2387;DHT22;49473;50.772;8.768;2024-02-23T12:21:11;12.40;99.90
2387;DHT22;49473;50.772;8.768;2024-02-23T12:23:40;14.40;98.70
2387;DHT22;49473;50.772;8.768;2024-02-23T12:26:08;15.10;97.10
2387;DHT22;49473;50.772;8.768;2024-02-23T12:28:35;15.10;95.30
2387;DHT22;49473;50.772;8.768;2024-02-23T12:31:02;14.30;95.20
2387;DHT22;49473;50.772;8.768;2024-02-23T12:33:31;13.20;97.40
2387;DHT22;49473;50.772;8.768;2024-02-23T12:36:00;12.60;98.80
2387;DHT22;49473;50.772;8.768;2024-02-23T12:38:27;11.90;99.80
2387;DHT22;49473;50.772;8.768;2024-02-23T12:40:54;11.40;99.90
2387;DHT22;49473;50.772;8.768;2024-02-23T12:43:23;12.30;99.90
2387;DHT22;49473;50.772;8.768;2024-02-23T12:45:50;13.30;99.90
2387;DHT22;49473;50.772;8.768;2024-02-23T12:48:17;13.50;99.90
2387;DHT22;49473;50.772;8.768;2024-02-23T12:50:44;13.20;99.90
2387;DHT22;49473;50.772;8.768;2024-02-23T12:53:12;12.50;99.90
2387;DHT22;49473;50.772;8.768;2024-02-23T12:55:56;13.40;99.90
2387;DHT22;49473;50.772;8.768;2024-02-23T12:58:24;15.20;96.60
2387;DHT22;49473;50.772;8.768;2024-02-23T13:00:51;17.30;94.10
2387;DHT22;49473;50.772;8.768;2024-02-23T13:03:18;17.60;92.10
2387;DHT22;49473;50.772;8.768;2024-02-23T13:05:45;17.50;91.40
2387;DHT22;49473;50.772;8.768;2024-02-23T13:08:12;16.90;90.30
2387;DHT22;49473;50.772;8.768;2024-02-23T13:10:39;15.80;90.50
2387;DHT22;49473;50.772;8.768;2024-02-23T13:13:06;14.60;90.80
2387;DHT22;49473;50.772;8.768;2024-02-23T13:15:34;14.00;91.60
2387;DHT22;49473;50.772;8.768;2024-02-23T13:18:02;14.10;92.60
2387;DHT22;49473;50.772;8.768;2024-02-23T13:20:29;14.20;92.40
2387;DHT22;49473;50.772;8.768;2024-02-23T13:22:56;14.30;93.70
2387;DHT22;49473;50.772;8.768;2024-02-23T13:25:22;14.90;94.00
2387;DHT22;49473;50.772;8.768;2024-02-23T13:27:49;15.80;91.60
2387;DHT22;49473;50.772;8.768;2024-02-23T13:30:16;14.40;92.30
2387;DHT22;49473;50.772;8.768;2024-02-23T13:32:44;13.50;93.80
2387;DHT22;49473;50.772;8.768;2024-02-23T13:35:11;13.20;94.70
2387;DHT22;49473;50.772;8.768;2024-02-23T13:37:39;12.90;94.60
2387;DHT22;49473;50.772;8.768;2024-02-23T13:40:08;12.40;94.70
2387;DHT22;49473;50.772;8.768;2024-02-23T13:42:35;12.30;95.60
2387;DHT22;49473;50.772;8.768;2024-02-23T13:45:04;12.10;96.70
2387;DHT22;49473;50.772;8.768;2024-02-23T13:47:31;11.60;96.00
2387;DHT22;49473;50.772;8.768;2024-02-23T13:49:59;11.20;98.50
2387;DHT22;49473;50.772;8.768;2024-02-23T13:52:26;10.90;98.00
2387;DHT22;49473;50.772;8.768;2024-02-23T13:54:53;10.70;99.60
2387;DHT22;49473;50.772;8.768;2024-02-23T13:57:20;10.70;99.90
2387;DHT22;49473;50.772;8.768;2024-02-23T13:59:47;10.10;99.90
2387;DHT22;49473;50.772;8.768;2024-02-23T14:02:14;9.80;99.90
2387;DHT22;49473;50.772;8.768;2024-02-23T14:04:41;9.80;99.90
2387;DHT22;49473;50.772;8.768;2024-02-23T14:07:09;9.80;99.90
2387;DHT22;49473;50.772;8.768;2024-02-23T14:09:35;9.80;99.90
2387;DHT22;49473;50.772;8.768;2024-02-23T14:12:03;9.90;99.90
2387;DHT22;49473;50.772;8.768;2024-02-23T14:14:30;9.90;99.90
2387;DHT22;49473;50.772;8.768;2024-02-23T14:16:56;10.00;99.90
2387;DHT22;49473;50.772;8.768;2024-02-23T14:19:23;10.20;99.90
2387;DHT22;49473;50.772;8.768;2024-02-23T14:21:51;10.30;99.90
2387;DHT22;49473;50.772;8.768;2024-02-23T14:24:19;9.90;99.90
2387;DHT22;49473;50.772;8.768;2024-02-23T14:26:46;10.00;99.90
2387;DHT22;49473;50.772;8.768;2024-02-23T14:29:13;10.00;99.90
2387;DHT22;49473;50.772;8.768;2024-02-23T14:31:40;9.90;99.90
2387;DHT22;49473;50.772;8.768;2024-02-23T14:34:06;10.10;99.90
2387;DHT22;49473;50.772;8.768;2024-02-23T14:36:34;10.30;99.90
2387;DHT22;49473;50.772;8.768;2024-02-23T14:39:01;10.70;99.90
2387;DHT22;49473;50.772;8.768;2024-02-23T14:41:31;10.80;99.90
2387;DHT22;49473;50.772;8.768;2024-02-23T14:43:58;10.80;99.90
2387;DHT22;49473;50.772;8.768;2024-02-23T14:46:24;10.60;99.90
2387;DHT22;49473;50.772;8.768;2024-02-23T14:48:51;10.30;99.90
2387;DHT22;49473;50.772;8.768;2024-02-23T14:51:19;10.20;99.90
2387;DHT22;49473;50.772;8.768;2024-02-23T14:53:46;10.00;99.90
2387;DHT22;49473;50.772;8.768;2024-02-23T14:56:12;9.90;99.90
2387;DHT22;49473;50.772;8.768;2024-02-23T14:58:40;9.70;99.90
2387;DHT22;49473;50.772;8.768;2024-02-23T15:01:07;9.40;99.90
2387;DHT22;49473;50.772;8.768;2024-02-23T15:03:34;9.40;99.90
2387;DHT22;49473;50.772;8.768;2024-02-23T15:06:01;9.30;99.90
2387;DHT22;49473;50.772;8.768;2024-02-23T15:08:28;9.10;99.90
2387;DHT22;49473;50.772;8.768;2024-02-23T15:10:56;8.90;99.90
2387;DHT22;49473;50.772;8.768;2024-02-23T15:13:23;8.90;99.90
2387;DHT22;49473;50.772;8.768;2024-02-23T15:15:51;8.90;99.90
2387;DHT22;49473;50.772;8.768;2024-02-23T15:18:18;8.90;99.90
2387;DHT22;49473;50.772;8.768;2024-02-23T15:20:45;8.90;99.90
2387;DHT22;49473;50.772;8.768;2024-02-23T15:23:13;8.90;99.90
2387;DHT22;49473;50.772;8.768;2024-02-23T15:25:40;8.90;99.90
2387;DHT22;49473;50.772;8.768;2024-02-23T15:28:07;8.90;99.90
2387;DHT22;49473;50.772;8.768;2024-02-23T15:30:33;8.90;99.90
2387;DHT22;49473;50.772;8.768;2024-02-23T15:33:02;8.80;99.90
2387;DHT22;49473;50.772;8.768;2024-02-23T15:35:28;8.80;99.90
2387;DHT22;49473;50.772;8.768;2024-02-23T15:37:55;8.70;99.90
2387;DHT22;49473;50.772;8.768;2024-02-23T15:40:22;8.70;99.90
2387;DHT22;49473;50.772;8.768;2024-02-23T15:42:49;8.70;99.90
2387;DHT22;49473;50.772;8.768;2024-02-23T15:45:16;8.70;99.90
2387;DHT22;49473;50.772;8.768;2024-02-23T15:47:44;8.60;99.90
2387;DHT22;49473;50.772;8.768;2024-02-23T15:50:12;8.70;99.90
2387;DHT22;49473;50.772;8.768;2024-02-23T15:52:39;9.00;99.90
2387;DHT22;49473;50.772;8.768;2024-02-23T15:55:06;9.50;99.90
2387;DHT22;49473;50.772;8.768;2024-02-23T15:57:36;9.70;99.90